createdAt,value
2018-10-04T00:00:45.875Z,100.00
2018-10-04T00:03:16.332Z,100.00
2018-10-04T00:05:45.863Z,100.00
2018-10-04T00:08:15.402Z,100.00
2018-10-04T00:10:44.884Z,100.00
2018-10-04T00:13:15.011Z,100.00
2018-10-04T00:15:45.099Z,100.00
2018-10-04T00:18:14.655Z,100.00
2018-10-04T00:20:44.118Z,100.00
2018-10-04T00:23:13.714Z,100.00
2018-10-04T00:25:43.136Z,100.00
2018-10-04T00:28:13.062Z,100.00
2018-10-04T00:30:42.543Z,100.00
2018-10-04T00:33:12.289Z,100.00
2018-10-04T00:35:41.761Z,100.00
2018-10-04T00:38:11.287Z,100.00
2018-10-04T00:40:40.954Z,100.00
2018-10-04T00:43:10.503Z,100.00
2018-10-04T00:45:40.306Z,100.00
2018-10-04T00:48:10.357Z,100.00
2018-10-04T00:50:40.228Z,100.00
2018-10-04T00:53:10.227Z,100.00
2018-10-04T00:55:39.831Z,100.00
2018-10-04T00:58:09.794Z,100.00
2018-10-04T01:00:39.536Z,100.00
2018-10-04T01:03:09.030Z,100.00
2018-10-04T01:05:38.696Z,100.00
2018-10-04T01:08:08.993Z,100.00
2018-10-04T01:10:38.318Z,100.00
2018-10-04T01:13:08.118Z,100.00
2018-10-04T01:15:38.379Z,100.00
2018-10-04T01:18:18.810Z,100.00
2018-10-04T01:20:48.411Z,100.00
2018-10-04T01:23:17.932Z,100.00
2018-10-04T01:25:47.446Z,100.00
2018-10-04T01:28:16.927Z,100.00
2018-10-04T01:30:46.184Z,100.00
2018-10-04T01:33:16.298Z,100.00
2018-10-04T01:35:45.663Z,100.00
2018-10-04T01:38:15.170Z,100.00
2018-10-04T01:40:44.708Z,100.00
2018-10-04T01:43:14.187Z,100.00
2018-10-04T01:45:44.478Z,100.00
2018-10-04T01:48:14.269Z,100.00
2018-10-04T01:50:44.105Z,100.00
2018-10-04T01:53:14.318Z,100.00
2018-10-04T01:55:44.390Z,100.00
2018-10-04T01:58:14.070Z,100.00
2018-10-04T02:00:43.624Z,100.00
2018-10-04T02:03:13.500Z,100.00
2018-10-04T02:05:43.051Z,100.00
2018-10-04T02:08:12.692Z,100.00
2018-10-04T02:10:42.456Z,100.00
2018-10-04T02:13:11.919Z,100.00
2018-10-04T02:15:42.066Z,100.00
2018-10-04T02:18:11.543Z,100.00
2018-10-04T02:20:41.294Z,100.00
2018-10-04T02:23:11.849Z,100.00
2018-10-04T02:25:41.155Z,100.00
2018-10-04T02:28:10.617Z,100.00
2018-10-04T02:30:40.322Z,100.00
2018-10-04T02:33:10.292Z,100.00
2018-10-04T02:35:40.908Z,100.00
2018-10-04T02:38:11.051Z,100.00
2018-10-04T02:40:41.002Z,100.00
2018-10-04T02:43:10.791Z,100.00
2018-10-04T02:45:40.030Z,100.00
2018-10-04T02:48:09.772Z,100.00
2018-10-04T02:50:39.074Z,100.00
2018-10-04T02:53:08.915Z,100.00
2018-10-04T02:55:43.337Z,100.00
2018-10-04T02:58:12.874Z,100.00
2018-10-04T03:00:42.377Z,100.00
2018-10-04T03:03:11.742Z,100.00
2018-10-04T03:05:41.150Z,100.00
2018-10-04T03:08:11.451Z,100.00
2018-10-04T03:10:41.359Z,100.00
2018-10-04T03:13:10.847Z,100.00
2018-10-04T03:15:40.711Z,100.00
2018-10-04T03:18:10.120Z,100.00
2018-10-04T03:20:40.447Z,100.00
2018-10-04T03:23:10.187Z,100.00
2018-10-04T03:25:39.690Z,100.00
2018-10-04T03:28:09.574Z,100.00
2018-10-04T03:30:40.083Z,100.00
2018-10-04T03:33:09.615Z,100.00
2018-10-04T03:35:39.467Z,100.00
2018-10-04T03:38:10.062Z,100.00
2018-10-04T03:40:39.943Z,100.00
2018-10-04T03:43:09.467Z,100.00
2018-10-04T03:45:39.006Z,100.00
2018-10-04T03:48:08.450Z,100.00
2018-10-04T03:50:38.011Z,100.00
2018-10-04T03:53:07.843Z,100.00
2018-10-04T03:55:38.338Z,100.00
2018-10-04T03:58:07.721Z,100.00
2018-10-04T04:00:37.915Z,100.00
2018-10-04T04:03:07.551Z,100.00
2018-10-04T04:05:37.082Z,100.00
2018-10-04T04:08:06.560Z,100.00
2018-10-04T04:10:36.418Z,100.00
2018-10-04T04:13:06.792Z,100.00
2018-10-04T04:15:36.350Z,100.00
2018-10-04T04:18:06.177Z,100.00
2018-10-04T04:20:36.367Z,100.00
2018-10-04T04:23:05.830Z,100.00
2018-10-04T04:25:36.198Z,100.00
2018-10-04T04:28:06.011Z,100.00
2018-10-04T04:30:35.470Z,100.00
2018-10-04T04:33:05.004Z,100.00
2018-10-04T04:35:34.726Z,100.00
2018-10-04T04:38:03.998Z,100.00
2018-10-04T04:40:34.419Z,100.00
2018-10-04T04:43:03.931Z,100.00
2018-10-04T04:45:34.483Z,100.00
2018-10-04T04:48:04.002Z,100.00
2018-10-04T04:50:33.475Z,100.00
2018-10-04T04:53:13.066Z,100.00
2018-10-04T04:55:43.939Z,100.00
2018-10-04T04:58:14.862Z,100.00
2018-10-04T05:00:46.085Z,100.00
2018-10-04T05:03:15.570Z,100.00
2018-10-04T05:05:45.038Z,100.00
2018-10-04T05:08:14.820Z,100.00
2018-10-04T05:10:44.249Z,100.00
2018-10-04T05:13:13.790Z,100.00
2018-10-04T05:15:43.262Z,100.00
2018-10-04T05:18:12.846Z,100.00
2018-10-04T05:20:42.270Z,100.00
2018-10-04T05:23:12.235Z,100.00
2018-10-04T05:25:41.707Z,100.00
2018-10-04T05:28:11.423Z,100.00
2018-10-04T05:30:40.908Z,100.00
2018-10-04T05:33:10.435Z,100.00
2018-10-04T05:35:40.357Z,100.00
2018-10-04T05:38:09.846Z,100.00
2018-10-04T05:40:39.393Z,100.00
2018-10-04T05:43:08.902Z,100.00
2018-10-04T05:45:38.597Z,100.00
2018-10-04T05:48:08.463Z,100.00
2018-10-04T05:50:38.380Z,100.00
2018-10-04T05:53:07.930Z,100.00
2018-10-04T05:55:37.487Z,100.00
2018-10-04T05:58:08.527Z,100.00
2018-10-04T06:00:40.356Z,100.00
2018-10-04T06:03:10.023Z,100.00
2018-10-04T06:05:39.855Z,100.00
2018-10-04T06:08:09.293Z,100.00
2018-10-04T06:10:39.076Z,100.00
2018-10-04T06:13:08.421Z,100.00
2018-10-04T06:15:38.026Z,100.00
2018-10-04T06:18:07.843Z,100.00
2018-10-04T06:20:39.911Z,100.00
2018-10-04T06:23:09.660Z,100.00
2018-10-04T06:25:39.064Z,100.00
2018-10-04T06:28:08.338Z,100.00
2018-10-04T06:30:38.121Z,100.00
2018-10-04T06:33:08.151Z,100.00
2018-10-04T06:35:37.719Z,100.00
2018-10-04T06:38:07.360Z,100.00
2018-10-04T06:40:36.901Z,100.00
2018-10-04T06:43:07.059Z,100.00
2018-10-04T06:45:36.533Z,100.00
2018-10-04T06:48:06.071Z,100.00
2018-10-04T06:50:36.091Z,100.00
2018-10-04T06:53:05.626Z,100.00
2018-10-04T06:55:35.129Z,100.00
2018-10-04T06:58:05.557Z,100.00
2018-10-04T07:00:35.158Z,100.00
2018-10-04T07:03:04.732Z,100.00
2018-10-04T07:05:34.802Z,100.00
2018-10-04T07:08:04.311Z,100.00
2018-10-04T07:10:34.066Z,100.00
2018-10-04T07:13:03.531Z,100.00
2018-10-04T07:15:33.903Z,100.00
2018-10-04T07:18:04.213Z,100.00
2018-10-04T07:20:35.041Z,100.00
2018-10-04T07:23:04.439Z,100.00
2018-10-04T07:25:34.148Z,100.00
2018-10-04T07:28:03.674Z,100.00
2018-10-04T07:30:33.578Z,100.00
2018-10-04T07:33:03.072Z,100.00
2018-10-04T07:35:33.939Z,100.00
2018-10-04T07:38:03.697Z,100.00
2018-10-04T07:40:33.827Z,100.00
2018-10-04T07:43:03.974Z,100.00
2018-10-04T07:45:34.282Z,100.00
2018-10-04T07:48:03.962Z,100.00
2018-10-04T07:50:33.545Z,100.00
2018-10-04T07:53:03.371Z,100.00
2018-10-04T07:55:33.570Z,100.00
2018-10-04T07:58:02.998Z,100.00
2018-10-04T08:00:32.733Z,100.00
2018-10-04T08:03:02.215Z,100.00
2018-10-04T08:05:32.004Z,100.00
2018-10-04T08:08:01.839Z,100.00
2018-10-04T08:10:31.571Z,100.00
2018-10-04T08:13:00.779Z,100.00
2018-10-04T08:15:30.427Z,100.00
2018-10-04T08:17:59.852Z,100.00
2018-10-04T08:20:29.378Z,100.00
2018-10-04T08:22:59.040Z,100.00
2018-10-04T08:25:28.615Z,100.00
2018-10-04T08:27:58.123Z,100.00
2018-10-04T08:30:27.771Z,100.00
2018-10-04T08:32:57.302Z,100.00
2018-10-04T08:35:33.369Z,100.00
2018-10-04T08:38:03.515Z,100.00
2018-10-04T08:40:33.810Z,100.00
2018-10-04T08:43:03.342Z,100.00
2018-10-04T08:45:32.966Z,100.00
2018-10-04T08:48:02.390Z,99.43
2018-10-04T08:50:31.571Z,99.92
2018-10-04T08:53:01.138Z,100.00
2018-10-04T08:55:35.001Z,100.00
2018-10-04T08:58:05.104Z,97.60
2018-10-04T09:00:34.970Z,97.50
2018-10-04T09:03:05.961Z,98.13
2018-10-04T09:05:35.799Z,98.02
2018-10-04T09:08:05.566Z,96.62
2018-10-04T09:10:35.097Z,96.63
2018-10-04T09:13:04.739Z,95.81
2018-10-04T09:15:34.912Z,95.98
2018-10-04T09:18:04.276Z,95.33
2018-10-04T09:20:34.245Z,95.78
2018-10-04T09:23:03.592Z,95.87
2018-10-04T09:25:33.358Z,94.96
2018-10-04T09:28:03.835Z,94.52
2018-10-04T09:30:38.817Z,93.90
2018-10-04T09:33:09.063Z,95.22
2018-10-04T09:35:39.305Z,95.93
2018-10-04T09:38:08.811Z,95.94
2018-10-04T09:40:38.711Z,95.11
2018-10-04T09:43:08.939Z,94.36
2018-10-04T09:45:38.523Z,94.79
2018-10-04T09:48:11.995Z,95.41
2018-10-04T09:50:42.525Z,95.05
2018-10-04T09:53:13.064Z,95.19
2018-10-04T09:55:47.782Z,94.54
2018-10-04T09:58:17.365Z,93.28
2018-10-04T10:00:52.160Z,93.80
2018-10-04T10:03:21.913Z,93.71
2018-10-04T10:05:51.803Z,94.01
2018-10-04T10:08:21.531Z,93.60
2018-10-04T10:10:51.441Z,94.16
2018-10-04T10:13:21.106Z,93.54
2018-10-04T10:15:51.063Z,93.71
2018-10-04T10:18:21.227Z,93.55
2018-10-04T10:20:50.944Z,93.51
2018-10-04T10:23:20.836Z,93.72
2018-10-04T10:25:50.495Z,94.02
2018-10-04T10:28:20.027Z,93.82
2018-10-04T10:30:49.514Z,94.10
2018-10-04T10:33:19.047Z,93.37
2018-10-04T10:35:48.708Z,92.93
2018-10-04T10:38:18.231Z,93.18
2018-10-04T10:40:48.593Z,93.24
2018-10-04T10:43:19.086Z,93.62
2018-10-04T10:45:49.018Z,93.20
2018-10-04T10:48:18.845Z,93.66
2018-10-04T10:50:48.923Z,92.97
2018-10-04T10:53:18.406Z,93.20
2018-10-04T10:55:48.647Z,94.95
2018-10-04T10:58:18.566Z,94.89
2018-10-04T11:00:47.768Z,94.38
2018-10-04T11:03:17.468Z,92.81
2018-10-04T11:05:46.866Z,92.83
2018-10-04T11:08:16.448Z,92.59
2018-10-04T11:10:45.902Z,93.08
2018-10-04T11:13:15.627Z,91.75
2018-10-04T11:15:45.338Z,91.58
2018-10-04T11:18:15.124Z,90.66
2018-10-04T11:20:45.168Z,90.73
2018-10-04T11:23:14.730Z,91.30
2018-10-04T11:25:44.151Z,90.99
2018-10-04T11:28:14.071Z,91.15
2018-10-04T11:30:43.698Z,90.42
2018-10-04T11:33:13.508Z,91.37
2018-10-04T11:35:43.210Z,90.79
2018-10-04T11:38:13.186Z,90.72
2018-10-04T11:40:42.843Z,89.82
2018-10-04T11:43:14.264Z,88.91
2018-10-04T11:45:44.171Z,90.11
2018-10-04T11:48:18.803Z,89.69
2018-10-04T11:50:48.934Z,89.63
2018-10-04T11:53:18.340Z,90.07
2018-10-04T11:55:49.299Z,90.32
2018-10-04T11:58:19.314Z,89.40
2018-10-04T12:00:48.933Z,89.72
2018-10-04T12:03:18.956Z,89.65
2018-10-04T12:05:48.736Z,89.46
2018-10-04T12:08:18.422Z,90.05
2018-10-04T12:10:48.735Z,89.21
2018-10-04T12:13:18.547Z,89.23
2018-10-04T12:15:48.223Z,89.93
2018-10-04T12:18:17.703Z,89.34
2018-10-04T12:20:47.294Z,89.89
2018-10-04T12:23:16.683Z,90.36
2018-10-04T12:25:46.383Z,90.32
2018-10-04T12:28:16.755Z,90.35
2018-10-04T12:30:46.294Z,89.99
2018-10-04T12:33:15.750Z,90.30
2018-10-04T12:35:45.244Z,89.82
2018-10-04T12:38:14.741Z,90.09
2018-10-04T12:40:44.179Z,90.38
2018-10-04T12:43:14.055Z,90.20
2018-10-04T12:45:43.440Z,89.48
2018-10-04T12:48:12.709Z,90.01
2018-10-04T12:50:42.631Z,89.21
2018-10-04T12:53:12.355Z,89.58
2018-10-04T12:55:42.112Z,88.55
2018-10-04T12:58:11.807Z,89.64
2018-10-04T13:00:41.362Z,88.66
2018-10-04T13:03:11.022Z,88.88
2018-10-04T13:05:40.538Z,86.77
2018-10-04T13:08:10.011Z,86.26
2018-10-04T13:10:39.734Z,86.66
2018-10-04T13:13:09.571Z,85.21
2018-10-04T13:15:38.982Z,85.31
2018-10-04T13:18:08.356Z,85.03
2018-10-04T13:20:38.509Z,83.96
2018-10-04T13:23:08.053Z,84.89
2018-10-04T13:25:38.103Z,84.60
2018-10-04T13:28:07.510Z,84.13
2018-10-04T13:30:37.430Z,83.96
2018-10-04T13:33:07.302Z,82.49
2018-10-04T13:35:37.106Z,82.04
2018-10-04T13:38:06.931Z,83.14
2018-10-04T13:40:36.495Z,82.91
2018-10-04T13:43:06.227Z,83.00
2018-10-04T13:45:36.412Z,81.92
2018-10-04T13:48:06.222Z,81.45
2018-10-04T13:50:36.048Z,81.43
2018-10-04T13:53:05.438Z,81.11
2018-10-04T13:55:35.310Z,81.66
2018-10-04T13:58:04.702Z,81.74
2018-10-04T14:00:33.960Z,81.14
2018-10-04T14:03:04.118Z,80.50
2018-10-04T14:05:33.370Z,80.82
2018-10-04T14:08:02.791Z,80.58
2018-10-04T14:10:32.742Z,79.89
2018-10-04T14:13:02.359Z,79.55
2018-10-04T14:15:32.055Z,79.40
2018-10-04T14:18:01.951Z,79.88
2018-10-04T14:20:31.153Z,79.75
2018-10-04T14:23:00.735Z,80.27
2018-10-04T14:25:30.178Z,80.95
2018-10-04T14:28:00.520Z,79.59
2018-10-04T14:30:30.100Z,79.36
2018-10-04T14:33:00.432Z,78.75
2018-10-04T14:35:30.699Z,77.60
2018-10-04T14:38:01.234Z,78.24
2018-10-04T14:40:30.767Z,75.89
2018-10-04T14:43:01.290Z,77.22
2018-10-04T14:45:30.974Z,77.92
2018-10-04T14:48:00.778Z,78.69
2018-10-04T14:50:30.596Z,77.44
2018-10-04T14:53:00.520Z,77.41
2018-10-04T14:55:30.737Z,75.90
2018-10-04T14:58:00.965Z,74.49
2018-10-04T15:00:30.887Z,74.29
2018-10-04T15:03:00.613Z,74.44
2018-10-04T15:05:30.276Z,76.22
2018-10-04T15:08:00.712Z,76.89
2018-10-04T15:10:30.551Z,76.93
2018-10-04T15:13:00.206Z,77.26
2018-10-04T15:15:29.593Z,75.83
2018-10-04T15:17:59.227Z,75.28
2018-10-04T15:20:29.683Z,75.40
2018-10-04T15:22:59.943Z,76.27
2018-10-04T15:25:29.604Z,77.70
2018-10-04T15:27:59.279Z,77.19
2018-10-04T15:30:29.292Z,77.19
2018-10-04T15:32:58.688Z,76.95
2018-10-04T15:35:28.624Z,77.43
2018-10-04T15:37:58.143Z,77.42
2018-10-04T15:40:28.092Z,77.07
2018-10-04T15:42:58.624Z,78.97
2018-10-04T15:45:29.284Z,78.02
2018-10-04T15:47:59.190Z,78.70
2018-10-04T15:50:28.755Z,77.89
2018-10-04T15:52:58.477Z,78.28
2018-10-04T15:55:28.306Z,77.95
2018-10-04T15:57:58.499Z,77.29
2018-10-04T16:00:28.935Z,78.09
2018-10-04T16:02:59.298Z,78.63
2018-10-04T16:05:28.858Z,79.13
2018-10-04T16:07:58.374Z,78.38
2018-10-04T16:10:28.104Z,78.83
2018-10-04T16:12:57.931Z,79.23
2018-10-04T16:15:32.938Z,79.39
2018-10-04T16:18:02.306Z,79.70
2018-10-04T16:20:32.422Z,80.00
2018-10-04T16:23:02.156Z,80.15
2018-10-04T16:25:31.654Z,80.95
2018-10-04T16:28:01.754Z,81.31
2018-10-04T16:30:31.242Z,81.31
2018-10-04T16:33:01.423Z,82.03
2018-10-04T16:35:31.109Z,82.23
2018-10-04T16:38:00.848Z,82.90
2018-10-04T16:40:30.811Z,83.42
2018-10-04T16:43:00.543Z,84.08
2018-10-04T16:45:29.927Z,84.74
2018-10-04T16:47:59.509Z,85.80
2018-10-04T16:50:28.915Z,86.11
2018-10-04T16:52:58.458Z,86.11
2018-10-04T16:55:27.968Z,87.18
2018-10-04T16:57:57.596Z,87.92
2018-10-04T17:00:27.886Z,89.36
2018-10-04T17:02:57.994Z,89.98
2018-10-04T17:05:27.239Z,90.34
2018-10-04T17:07:57.365Z,91.29
2018-10-04T17:10:27.229Z,91.84
2018-10-04T17:12:56.986Z,91.70
2018-10-04T17:15:26.483Z,92.49
2018-10-04T17:17:56.191Z,92.98
2018-10-04T17:20:25.658Z,93.83
2018-10-04T17:22:55.822Z,94.32
2018-10-04T17:25:26.171Z,95.43
2018-10-04T17:27:56.085Z,96.49
2018-10-04T17:30:25.400Z,96.71
2018-10-04T17:32:55.479Z,96.38
2018-10-04T17:35:24.972Z,96.69
2018-10-04T17:37:54.648Z,97.73
2018-10-04T17:40:24.082Z,98.05
2018-10-04T17:42:53.899Z,98.59
2018-10-04T17:45:23.663Z,98.63
2018-10-04T17:47:53.037Z,99.25
2018-10-04T17:50:23.014Z,99.70
2018-10-04T17:52:52.796Z,99.86
2018-10-04T17:55:22.602Z,100.00
2018-10-04T17:57:52.151Z,100.00
2018-10-04T18:00:21.865Z,100.00
2018-10-04T18:02:51.573Z,100.00
2018-10-04T18:05:21.115Z,100.00
2018-10-04T18:07:52.027Z,100.00
2018-10-04T18:10:21.497Z,100.00
2018-10-04T18:12:50.975Z,100.00
2018-10-04T18:15:20.723Z,100.00
2018-10-04T18:17:50.211Z,100.00
2018-10-04T18:20:20.146Z,100.00
2018-10-04T18:22:49.626Z,100.00
2018-10-04T18:25:19.147Z,100.00
2018-10-04T18:27:49.040Z,100.00
2018-10-04T18:30:18.592Z,100.00
2018-10-04T18:32:48.302Z,100.00
2018-10-04T18:35:17.971Z,100.00
2018-10-04T18:37:48.107Z,100.00
2018-10-04T18:40:17.607Z,100.00
2018-10-04T18:42:47.550Z,100.00
2018-10-04T18:45:17.279Z,100.00
2018-10-04T18:47:46.975Z,100.00
2018-10-04T18:50:16.705Z,100.00
2018-10-04T18:52:46.102Z,100.00
2018-10-04T18:55:16.828Z,100.00
2018-10-04T18:57:46.232Z,100.00
2018-10-04T19:00:17.283Z,100.00
2018-10-04T19:02:46.916Z,100.00
2018-10-04T19:05:16.501Z,100.00
2018-10-04T19:07:46.012Z,100.00
2018-10-04T19:10:16.170Z,100.00
2018-10-04T19:12:46.167Z,100.00
2018-10-04T19:15:15.401Z,100.00
2018-10-04T19:17:45.309Z,100.00
2018-10-04T19:20:14.711Z,100.00
2018-10-04T19:22:44.111Z,100.00
2018-10-04T19:25:13.604Z,100.00
2018-10-04T19:27:43.144Z,100.00
2018-10-04T19:30:12.858Z,100.00
2018-10-04T19:32:42.724Z,100.00
2018-10-04T19:35:12.886Z,100.00
2018-10-04T19:37:42.980Z,100.00
2018-10-04T19:40:12.503Z,100.00
2018-10-04T19:42:41.727Z,100.00
2018-10-04T19:45:12.048Z,100.00
2018-10-04T19:47:42.086Z,100.00
2018-10-04T19:50:12.247Z,100.00
2018-10-04T19:52:41.618Z,100.00
2018-10-04T19:55:11.323Z,100.00
2018-10-04T19:57:41.057Z,100.00
2018-10-04T20:00:10.878Z,100.00
2018-10-04T20:02:40.481Z,100.00
2018-10-04T20:05:10.843Z,100.00
2018-10-04T20:07:40.762Z,100.00
2018-10-04T20:10:11.120Z,100.00
2018-10-04T20:12:40.743Z,100.00
2018-10-04T20:15:10.275Z,100.00
2018-10-04T20:17:40.171Z,100.00
2018-10-04T20:20:09.905Z,100.00
2018-10-04T20:22:39.735Z,100.00
2018-10-04T20:25:09.288Z,100.00
2018-10-04T20:27:39.123Z,100.00
2018-10-04T20:30:08.809Z,100.00
2018-10-04T20:32:38.210Z,100.00
2018-10-04T20:35:07.935Z,100.00
2018-10-04T20:37:38.150Z,100.00
2018-10-04T20:40:07.559Z,100.00
2018-10-04T20:42:37.078Z,100.00
2018-10-04T20:45:06.753Z,100.00
2018-10-04T20:47:36.302Z,100.00
2018-10-04T20:50:06.143Z,100.00
2018-10-04T20:52:35.710Z,100.00
2018-10-04T20:55:05.604Z,100.00
2018-10-04T20:57:35.654Z,100.00
2018-10-04T21:00:05.296Z,100.00
2018-10-04T21:02:34.966Z,100.00
2018-10-04T21:05:04.479Z,100.00
2018-10-04T21:07:34.327Z,100.00
2018-10-04T21:10:03.580Z,100.00
2018-10-04T21:12:32.971Z,100.00
2018-10-04T21:15:02.736Z,100.00
2018-10-04T21:17:32.603Z,100.00
2018-10-04T21:20:02.523Z,100.00
2018-10-04T21:22:33.095Z,100.00
2018-10-04T21:25:03.146Z,100.00
2018-10-04T21:27:33.493Z,100.00
2018-10-04T21:30:03.006Z,100.00
2018-10-04T21:32:32.481Z,100.00
2018-10-04T21:35:02.011Z,100.00
2018-10-04T21:37:32.146Z,100.00
2018-10-04T21:40:01.394Z,100.00
2018-10-04T21:42:30.786Z,100.00
2018-10-04T21:45:01.069Z,100.00
2018-10-04T21:47:30.796Z,100.00
2018-10-04T21:50:00.272Z,100.00
2018-10-04T21:52:29.822Z,100.00
2018-10-04T21:54:59.382Z,100.00
2018-10-04T21:57:28.598Z,100.00
2018-10-04T21:59:57.963Z,100.00
2018-10-04T22:02:27.187Z,100.00
2018-10-04T22:04:56.661Z,100.00
2018-10-04T22:07:26.569Z,100.00
2018-10-04T22:09:55.878Z,100.00
2018-10-04T22:12:25.813Z,100.00
2018-10-04T22:14:55.014Z,100.00
2018-10-04T22:17:24.891Z,100.00
2018-10-04T22:19:54.495Z,100.00
2018-10-04T22:22:24.008Z,100.00
2018-10-04T22:24:53.310Z,100.00
2018-10-04T22:27:23.034Z,100.00
2018-10-04T22:29:52.610Z,100.00
2018-10-04T22:32:22.094Z,100.00
2018-10-04T22:34:51.734Z,100.00
2018-10-04T22:37:21.508Z,100.00
2018-10-04T22:39:50.967Z,100.00
2018-10-04T22:42:20.723Z,100.00
2018-10-04T22:44:50.163Z,100.00
2018-10-04T22:47:20.145Z,100.00
2018-10-04T22:49:49.566Z,100.00
2018-10-04T22:52:18.951Z,100.00
2018-10-04T22:54:48.674Z,100.00
2018-10-04T22:57:18.126Z,100.00
2018-10-04T22:59:47.812Z,100.00
2018-10-04T23:02:17.318Z,100.00
2018-10-04T23:04:46.814Z,100.00
2018-10-04T23:07:17.022Z,100.00
2018-10-04T23:09:46.467Z,100.00
2018-10-04T23:12:16.204Z,100.00
2018-10-04T23:14:45.724Z,100.00
2018-10-04T23:17:15.387Z,100.00
2018-10-04T23:19:44.891Z,100.00
2018-10-04T23:22:14.364Z,100.00
2018-10-04T23:24:44.569Z,100.00
2018-10-04T23:27:14.506Z,100.00
2018-10-04T23:29:44.119Z,100.00
2018-10-04T23:32:13.912Z,100.00
2018-10-04T23:34:43.345Z,100.00
2018-10-04T23:37:13.471Z,100.00
2018-10-04T23:39:43.186Z,100.00
2018-10-04T23:42:12.474Z,100.00
2018-10-04T23:44:42.176Z,100.00
2018-10-04T23:47:12.138Z,100.00
2018-10-04T23:49:41.462Z,100.00
2018-10-04T23:52:11.314Z,100.00
2018-10-04T23:54:41.086Z,100.00
2018-10-04T23:57:10.766Z,100.00
2018-10-04T23:59:40.623Z,100.00
